Hegeler, Illinois
Current Conditions -  °F | °C
As of 3:55 PM on Wednesday 28 Jan 2015 (Local Time) from KDNV Reporting Station
Clear Clear  
Wind Chill: 26°   Ceiling: Unl
Heat Index: 35°   Visibility: 10mi
Dew Point: 22°   Wind: 13mph
Humidity: 58%   Direction: 150°SSE
Pressure: 30.08"   Gusts: 21mph
Location:  40.1365°N, 87.6307°W
Report Text: KDNV 282155Z AUTO 15011G18KT 10SM CLR 02/M06 A3008 RMK AO2 T00171058
Loading
Personal Weather Stations






























Interactive Weather Map New forecast layout! Learn more

10-Day Weather Forecast

Advertisements
Track Severe Weather on mobile